sensor_id;sensor_type;location;lat;lon;timestamp;temperature;humidity
15409;DHT22;7803;48.130;13.788;2023-05-18T00:00:34;23.00;84.30
15409;DHT22;7803;48.130;13.788;2023-05-18T00:03:37;23.00;85.20
15409;DHT22;7803;48.130;13.788;2023-05-18T00:06:39;23.00;84.30
15409;DHT22;7803;48.130;13.788;2023-05-18T00:09:41;23.10;84.40
15409;DHT22;7803;48.130;13.788;2023-05-18T00:12:43;23.00;84.20
15409;DHT22;7803;48.130;13.788;2023-05-18T00:15:45;23.00;84.20
15409;DHT22;7803;48.130;13.788;2023-05-18T00:18:48;23.00;84.20
15409;DHT22;7803;48.130;13.788;2023-05-18T00:21:54;23.00;84.20
15409;DHT22;7803;48.130;13.788;2023-05-18T00:24:56;23.00;84.10
15409;DHT22;7803;48.130;13.788;2023-05-18T00:27:58;23.00;84.00
15409;DHT22;7803;48.130;13.788;2023-05-18T00:31:00;23.00;84.00
15409;DHT22;7803;48.130;13.788;2023-05-18T00:34:04;23.00;84.00
15409;DHT22;7803;48.130;13.788;2023-05-18T00:37:06;23.00;84.00
15409;DHT22;7803;48.130;13.788;2023-05-18T00:40:10;23.00;84.00
15409;DHT22;7803;48.130;13.788;2023-05-18T00:43:12;23.00;84.00
15409;DHT22;7803;48.130;13.788;2023-05-18T00:46:14;23.00;84.00
15409;DHT22;7803;48.130;13.788;2023-05-18T00:49:18;23.00;83.80
15409;DHT22;7803;48.130;13.788;2023-05-18T00:52:20;23.00;83.80
15409;DHT22;7803;48.130;13.788;2023-05-18T00:55:22;23.00;83.30
15409;DHT22;7803;48.130;13.788;2023-05-18T00:58:24;23.00;83.50
15409;DHT22;7803;48.130;13.788;2023-05-18T01:01:28;23.00;83.50
15409;DHT22;7803;48.130;13.788;2023-05-18T01:04:31;23.00;83.50
15409;DHT22;7803;48.130;13.788;2023-05-18T01:07:33;22.90;83.50
15409;DHT22;7803;48.130;13.788;2023-05-18T01:10:36;23.00;83.50
15409;DHT22;7803;48.130;13.788;2023-05-18T01:13:45;23.00;83.60
15409;DHT22;7803;48.130;13.788;2023-05-18T01:16:53;23.00;83.60
15409;DHT22;7803;48.130;13.788;2023-05-18T01:20:14;23.00;83.50
15409;DHT22;7803;48.130;13.788;2023-05-18T01:23:48;22.90;83.50
15409;DHT22;7803;48.130;13.788;2023-05-18T01:26:55;22.90;83.40
15409;DHT22;7803;48.130;13.788;2023-05-18T01:29:59;23.00;83.50
15409;DHT22;7803;48.130;13.788;2023-05-18T01:33:05;22.90;83.50
15409;DHT22;7803;48.130;13.788;2023-05-18T01:36:08;22.90;83.50
15409;DHT22;7803;48.130;13.788;2023-05-18T01:39:10;22.90;83.50
15409;DHT22;7803;48.130;13.788;2023-05-18T01:42:18;22.90;83.50
15409;DHT22;7803;48.130;13.788;2023-05-18T01:45:24;22.90;83.60
15409;DHT22;7803;48.130;13.788;2023-05-18T01:48:28;22.90;83.50
15409;DHT22;7803;48.130;13.788;2023-05-18T01:51:33;22.90;83.50
15409;DHT22;7803;48.130;13.788;2023-05-18T01:54:40;22.90;83.50
15409;DHT22;7803;48.130;13.788;2023-05-18T01:57:47;22.90;83.50
15409;DHT22;7803;48.130;13.788;2023-05-18T02:00:50;22.90;83.50
15409;DHT22;7803;48.130;13.788;2023-05-18T02:03:52;22.90;83.60
15409;DHT22;7803;48.130;13.788;2023-05-18T02:06:54;22.90;83.50
15409;DHT22;7803;48.130;13.788;2023-05-18T02:09:56;22.90;83.50
15409;DHT22;7803;48.130;13.788;2023-05-18T02:13:00;22.90;83.50
15409;DHT22;7803;48.130;13.788;2023-05-18T02:16:02;22.90;83.50
15409;DHT22;7803;48.130;13.788;2023-05-18T02:19:04;22.90;83.60
15409;DHT22;7803;48.130;13.788;2023-05-18T02:22:06;22.90;83.60
15409;DHT22;7803;48.130;13.788;2023-05-18T02:25:09;22.90;83.60
15409;DHT22;7803;48.130;13.788;2023-05-18T02:28:12;22.90;83.50
15409;DHT22;7803;48.130;13.788;2023-05-18T02:31:14;22.90;83.50
15409;DHT22;7803;48.130;13.788;2023-05-18T02:34:16;22.90;83.60
15409;DHT22;7803;48.130;13.788;2023-05-18T02:37:19;22.80;83.70
15409;DHT22;7803;48.130;13.788;2023-05-18T02:40:22;22.80;83.60
15409;DHT22;7803;48.130;13.788;2023-05-18T02:43:26;22.80;83.70
15409;DHT22;7803;48.130;13.788;2023-05-18T02:46:28;22.80;83.70
15409;DHT22;7803;48.130;13.788;2023-05-18T02:49:30;22.80;83.70
15409;DHT22;7803;48.130;13.788;2023-05-18T02:52:32;22.80;83.70
15409;DHT22;7803;48.130;13.788;2023-05-18T02:55:34;22.80;84.60
15409;DHT22;7803;48.130;13.788;2023-05-18T02:58:38;22.80;83.70
15409;DHT22;7803;48.130;13.788;2023-05-18T03:01:43;22.90;83.70
15409;DHT22;7803;48.130;13.788;2023-05-18T03:04:45;22.80;83.70
15409;DHT22;7803;48.130;13.788;2023-05-18T03:07:53;22.80;83.70
15409;DHT22;7803;48.130;13.788;2023-05-18T03:10:55;22.80;83.70
15409;DHT22;7803;48.130;13.788;2023-05-18T03:13:58;22.80;83.80
15409;DHT22;7803;48.130;13.788;2023-05-18T03:17:00;22.80;83.80
15409;DHT22;7803;48.130;13.788;2023-05-18T03:20:06;22.80;83.80
15409;DHT22;7803;48.130;13.788;2023-05-18T03:23:10;22.80;83.70
15409;DHT22;7803;48.130;13.788;2023-05-18T03:26:12;22.80;83.80
15409;DHT22;7803;48.130;13.788;2023-05-18T03:29:17;22.70;83.70
15409;DHT22;7803;48.130;13.788;2023-05-18T03:32:19;22.80;83.80
15409;DHT22;7803;48.130;13.788;2023-05-18T03:35:21;22.70;83.70
15409;DHT22;7803;48.130;13.788;2023-05-18T03:38:23;22.70;83.70
15409;DHT22;7803;48.130;13.788;2023-05-18T03:41:25;22.70;83.70
15409;DHT22;7803;48.130;13.788;2023-05-18T03:44:30;22.70;83.70
15409;DHT22;7803;48.130;13.788;2023-05-18T03:47:32;22.70;83.70
15409;DHT22;7803;48.130;13.788;2023-05-18T03:50:34;22.70;83.70
15409;DHT22;7803;48.130;13.788;2023-05-18T03:53:36;22.70;83.70
15409;DHT22;7803;48.130;13.788;2023-05-18T03:56:39;22.70;83.70
15409;DHT22;7803;48.130;13.788;2023-05-18T03:59:43;22.70;83.70
15409;DHT22;7803;48.130;13.788;2023-05-18T04:02:45;22.70;83.70
15409;DHT22;7803;48.130;13.788;2023-05-18T04:05:51;22.70;83.70
15409;DHT22;7803;48.130;13.788;2023-05-18T04:08:53;22.70;83.70
15409;DHT22;7803;48.130;13.788;2023-05-18T04:11:55;22.70;83.60
15409;DHT22;7803;48.130;13.788;2023-05-18T04:14:58;22.80;83.70
15409;DHT22;7803;48.130;13.788;2023-05-18T04:18:00;22.80;83.60
15409;DHT22;7803;48.130;13.788;2023-05-18T04:21:02;22.70;83.50
15409;DHT22;7803;48.130;13.788;2023-05-18T04:24:06;22.70;83.50
15409;DHT22;7803;48.130;13.788;2023-05-18T04:27:08;22.80;83.50
15409;DHT22;7803;48.130;13.788;2023-05-18T04:30:13;22.80;83.50
15409;DHT22;7803;48.130;13.788;2023-05-18T04:33:18;22.80;83.50
15409;DHT22;7803;48.130;13.788;2023-05-18T04:36:20;22.80;83.40
15409;DHT22;7803;48.130;13.788;2023-05-18T04:39:25;22.80;83.30
15409;DHT22;7803;48.130;13.788;2023-05-18T04:42:27;22.80;83.30
15409;DHT22;7803;48.130;13.788;2023-05-18T04:45:31;22.80;83.30
15409;DHT22;7803;48.130;13.788;2023-05-18T04:48:33;22.80;83.20
15409;DHT22;7803;48.130;13.788;2023-05-18T04:51:35;22.80;83.20
15409;DHT22;7803;48.130;13.788;2023-05-18T04:54:37;22.80;83.20
15409;DHT22;7803;48.130;13.788;2023-05-18T04:57:40;22.90;83.20
15409;DHT22;7803;48.130;13.788;2023-05-18T05:00:45;22.90;83.20
15409;DHT22;7803;48.130;13.788;2023-05-18T05:03:47;22.90;83.20
15409;DHT22;7803;48.130;13.788;2023-05-18T05:06:49;22.90;83.20
15409;DHT22;7803;48.130;13.788;2023-05-18T05:09:51;22.90;83.10
15409;DHT22;7803;48.130;13.788;2023-05-18T05:12:53;22.90;83.10
15409;DHT22;7803;48.130;13.788;2023-05-18T05:15:56;22.90;83.10
15409;DHT22;7803;48.130;13.788;2023-05-18T05:18:58;22.90;83.00
15409;DHT22;7803;48.130;13.788;2023-05-18T05:22:00;22.90;83.10
15409;DHT22;7803;48.130;13.788;2023-05-18T05:25:03;22.90;83.00
15409;DHT22;7803;48.130;13.788;2023-05-18T05:28:05;23.00;83.10
15409;DHT22;7803;48.130;13.788;2023-05-18T05:31:08;23.00;83.00
15409;DHT22;7803;48.130;13.788;2023-05-18T05:34:10;22.90;83.00
15409;DHT22;7803;48.130;13.788;2023-05-18T05:37:13;23.00;83.00
15409;DHT22;7803;48.130;13.788;2023-05-18T05:40:15;23.00;83.00
15409;DHT22;7803;48.130;13.788;2023-05-18T05:43:17;23.00;83.00
15409;DHT22;7803;48.130;13.788;2023-05-18T05:46:20;23.00;82.90
15409;DHT22;7803;48.130;13.788;2023-05-18T05:49:22;23.00;82.90
15409;DHT22;7803;48.130;13.788;2023-05-18T05:52:24;23.00;83.00
15409;DHT22;7803;48.130;13.788;2023-05-18T05:55:28;23.00;83.90
15409;DHT22;7803;48.130;13.788;2023-05-18T05:58:30;23.00;83.00
15409;DHT22;7803;48.130;13.788;2023-05-18T06:01:33;23.00;83.10
15409;DHT22;7803;48.130;13.788;2023-05-18T06:04:35;23.00;83.10
15409;DHT22;7803;48.130;13.788;2023-05-18T06:07:37;23.00;83.10
15409;DHT22;7803;48.130;13.788;2023-05-18T06:10:39;23.00;83.20
15409;DHT22;7803;48.130;13.788;2023-05-18T06:13:41;23.00;83.20
15409;DHT22;7803;48.130;13.788;2023-05-18T06:16:45;23.00;83.20
15409;DHT22;7803;48.130;13.788;2023-05-18T06:19:47;23.00;83.20
15409;DHT22;7803;48.130;13.788;2023-05-18T06:22:49;23.00;83.20
15409;DHT22;7803;48.130;13.788;2023-05-18T06:25:51;23.00;83.50
15409;DHT22;7803;48.130;13.788;2023-05-18T06:28:53;23.00;83.70
15409;DHT22;7803;48.130;13.788;2023-05-18T06:31:56;23.00;85.00
15409;DHT22;7803;48.130;13.788;2023-05-18T06:34:58;23.10;84.50
15409;DHT22;7803;48.130;13.788;2023-05-18T06:38:00;23.10;82.80
15409;DHT22;7803;48.130;13.788;2023-05-18T06:41:02;23.10;82.20
15409;DHT22;7803;48.130;13.788;2023-05-18T06:44:04;23.10;82.00
15409;DHT22;7803;48.130;13.788;2023-05-18T06:47:08;23.20;82.30
15409;DHT22;7803;48.130;13.788;2023-05-18T06:50:10;23.20;82.70
15409;DHT22;7803;48.130;13.788;2023-05-18T06:53:12;23.20;82.70
15409;DHT22;7803;48.130;13.788;2023-05-18T06:56:14;23.20;82.80
15409;DHT22;7803;48.130;13.788;2023-05-18T06:59:16;23.20;82.80
15409;DHT22;7803;48.130;13.788;2023-05-18T07:02:20;23.20;82.80
15409;DHT22;7803;48.130;13.788;2023-05-18T07:05:22;23.10;82.80
15409;DHT22;7803;48.130;13.788;2023-05-18T07:08:24;23.20;83.00
15409;DHT22;7803;48.130;13.788;2023-05-18T07:11:26;23.10;83.00
15409;DHT22;7803;48.130;13.788;2023-05-18T07:14:28;23.10;83.00
15409;DHT22;7803;48.130;13.788;2023-05-18T07:17:32;23.10;83.00
15409;DHT22;7803;48.130;13.788;2023-05-18T07:20:34;23.20;83.10
15409;DHT22;7803;48.130;13.788;2023-05-18T07:23:36;23.10;83.10
15409;DHT22;7803;48.130;13.788;2023-05-18T07:26:38;23.20;83.20
15409;DHT22;7803;48.130;13.788;2023-05-18T07:29:40;23.20;83.20
15409;DHT22;7803;48.130;13.788;2023-05-18T07:32:46;23.20;83.20
15409;DHT22;7803;48.130;13.788;2023-05-18T07:35:48;23.10;83.20
15409;DHT22;7803;48.130;13.788;2023-05-18T07:38:50;23.10;83.30
15409;DHT22;7803;48.130;13.788;2023-05-18T07:41:54;23.10;83.30
15409;DHT22;7803;48.130;13.788;2023-05-18T07:44:56;23.10;83.30
15409;DHT22;7803;48.130;13.788;2023-05-18T07:48:00;23.20;83.50
15409;DHT22;7803;48.130;13.788;2023-05-18T07:51:02;23.10;83.70
15409;DHT22;7803;48.130;13.788;2023-05-18T07:54:04;23.10;84.30
15409;DHT22;7803;48.130;13.788;2023-05-18T07:57:07;23.20;84.50
15409;DHT22;7803;48.130;13.788;2023-05-18T08:00:10;23.30;84.70
15409;DHT22;7803;48.130;13.788;2023-05-18T08:03:13;23.20;84.40
15409;DHT22;7803;48.130;13.788;2023-05-18T08:06:15;23.20;84.00
15409;DHT22;7803;48.130;13.788;2023-05-18T08:09:17;23.20;83.90
15409;DHT22;7803;48.130;13.788;2023-05-18T08:12:21;23.20;84.00
15409;DHT22;7803;48.130;13.788;2023-05-18T08:15:24;23.30;84.00
15409;DHT22;7803;48.130;13.788;2023-05-18T08:18:27;23.20;84.00
15409;DHT22;7803;48.130;13.788;2023-05-18T08:21:29;23.20;84.20
15409;DHT22;7803;48.130;13.788;2023-05-18T08:24:32;23.20;84.20
15409;DHT22;7803;48.130;13.788;2023-05-18T08:27:34;23.20;84.30
15409;DHT22;7803;48.130;13.788;2023-05-18T08:30:36;23.20;84.40
15409;DHT22;7803;48.130;13.788;2023-05-18T08:33:39;23.30;84.50
15409;DHT22;7803;48.130;13.788;2023-05-18T08:36:42;23.20;84.50
15409;DHT22;7803;48.130;13.788;2023-05-18T08:39:45;23.20;84.50
15409;DHT22;7803;48.130;13.788;2023-05-18T08:42:50;23.20;84.60
15409;DHT22;7803;48.130;13.788;2023-05-18T08:45:57;23.20;84.60
15409;DHT22;7803;48.130;13.788;2023-05-18T08:49:04;23.20;84.70
15409;DHT22;7803;48.130;13.788;2023-05-18T08:52:07;23.30;84.90
15409;DHT22;7803;48.130;13.788;2023-05-18T08:55:10;23.20;84.80
15409;DHT22;7803;48.130;13.788;2023-05-18T08:58:16;23.20;84.90
15409;DHT22;7803;48.130;13.788;2023-05-18T09:01:20;23.30;85.90
15409;DHT22;7803;48.130;13.788;2023-05-18T09:04:29;23.20;85.00
15409;DHT22;7803;48.130;13.788;2023-05-18T09:07:34;23.20;84.90
15409;DHT22;7803;48.130;13.788;2023-05-18T09:10:38;23.20;85.00
15409;DHT22;7803;48.130;13.788;2023-05-18T09:13:40;23.20;84.50
15409;DHT22;7803;48.130;13.788;2023-05-18T09:16:43;23.30;84.90
15409;DHT22;7803;48.130;13.788;2023-05-18T09:19:47;23.20;84.90
15409;DHT22;7803;48.130;13.788;2023-05-18T09:22:49;23.30;84.90
15409;DHT22;7803;48.130;13.788;2023-05-18T09:25:51;23.20;85.60
15409;DHT22;7803;48.130;13.788;2023-05-18T09:28:54;23.30;84.80
15409;DHT22;7803;48.130;13.788;2023-05-18T09:31:56;23.30;84.70
15409;DHT22;7803;48.130;13.788;2023-05-18T09:35:05;23.30;84.60
15409;DHT22;7803;48.130;13.788;2023-05-18T09:38:07;23.30;84.50
15409;DHT22;7803;48.130;13.788;2023-05-18T09:41:11;23.30;84.50
15409;DHT22;7803;48.130;13.788;2023-05-18T09:44:14;23.20;84.40
15409;DHT22;7803;48.130;13.788;2023-05-18T09:47:17;23.20;84.30
15409;DHT22;7803;48.130;13.788;2023-05-18T09:50:21;23.30;84.30
15409;DHT22;7803;48.130;13.788;2023-05-18T09:53:23;23.20;84.20
15409;DHT22;7803;48.130;13.788;2023-05-18T09:56:26;23.30;84.20
15409;DHT22;7803;48.130;13.788;2023-05-18T09:59:28;23.20;84.00
15409;DHT22;7803;48.130;13.788;2023-05-18T10:02:30;23.20;84.00
15409;DHT22;7803;48.130;13.788;2023-05-18T10:05:34;23.30;84.00
15409;DHT22;7803;48.130;13.788;2023-05-18T10:08:38;23.30;83.90
15409;DHT22;7803;48.130;13.788;2023-05-18T10:11:40;23.30;83.80
15409;DHT22;7803;48.130;13.788;2023-05-18T10:14:44;23.30;83.80
15409;DHT22;7803;48.130;13.788;2023-05-18T10:17:47;23.30;83.80
15409;DHT22;7803;48.130;13.788;2023-05-18T10:20:53;23.30;83.70
15409;DHT22;7803;48.130;13.788;2023-05-18T10:23:55;23.20;83.70
15409;DHT22;7803;48.130;13.788;2023-05-18T10:27:00;23.30;83.70
15409;DHT22;7803;48.130;13.788;2023-05-18T10:30:05;23.30;83.70
15409;DHT22;7803;48.130;13.788;2023-05-18T10:33:09;23.30;83.70
15409;DHT22;7803;48.130;13.788;2023-05-18T10:36:13;23.30;83.70
15409;DHT22;7803;48.130;13.788;2023-05-18T10:39:16;23.30;84.00
15409;DHT22;7803;48.130;13.788;2023-05-18T10:42:20;23.30;84.10
15409;DHT22;7803;48.130;13.788;2023-05-18T10:45:23;23.30;84.20
15409;DHT22;7803;48.130;13.788;2023-05-18T10:48:26;23.30;84.90
15409;DHT22;7803;48.130;13.788;2023-05-18T10:51:30;23.30;85.00
15409;DHT22;7803;48.130;13.788;2023-05-18T10:54:33;23.30;85.00
15409;DHT22;7803;48.130;13.788;2023-05-18T10:57:38;23.30;85.30
15409;DHT22;7803;48.130;13.788;2023-05-18T11:00:45;23.30;85.50
15409;DHT22;7803;48.130;13.788;2023-05-18T11:03:48;23.40;85.80
15409;DHT22;7803;48.130;13.788;2023-05-18T11:06:56;23.40;86.20
15409;DHT22;7803;48.130;13.788;2023-05-18T11:10:00;23.40;86.50
15409;DHT22;7803;48.130;13.788;2023-05-18T11:13:02;23.40;85.70
15409;DHT22;7803;48.130;13.788;2023-05-18T11:16:07;23.40;85.60
15409;DHT22;7803;48.130;13.788;2023-05-18T11:19:09;23.40;85.70
15409;DHT22;7803;48.130;13.788;2023-05-18T11:22:13;23.40;85.90
15409;DHT22;7803;48.130;13.788;2023-05-18T11:25:36;23.40;85.90
15409;DHT22;7803;48.130;13.788;2023-05-18T11:28:41;23.40;85.80
15409;DHT22;7803;48.130;13.788;2023-05-18T11:31:44;23.40;85.50
15409;DHT22;7803;48.130;13.788;2023-05-18T11:34:49;23.40;85.30
15409;DHT22;7803;48.130;13.788;2023-05-18T11:37:53;23.40;85.00
15409;DHT22;7803;48.130;13.788;2023-05-18T11:40:57;23.40;84.70
15409;DHT22;7803;48.130;13.788;2023-05-18T11:44:13;23.30;72.50
15409;DHT22;7803;48.130;13.788;2023-05-18T11:47:17;23.10;68.40
15409;DHT22;7803;48.130;13.788;2023-05-18T11:50:19;22.60;66.60
15409;DHT22;7803;48.130;13.788;2023-05-18T11:53:23;22.00;67.90
15409;DHT22;7803;48.130;13.788;2023-05-18T11:56:26;21.60;69.60
15409;DHT22;7803;48.130;13.788;2023-05-18T11:59:36;21.40;71.30
15409;DHT22;7803;48.130;13.788;2023-05-18T12:02:38;21.30;72.80
15409;DHT22;7803;48.130;13.788;2023-05-18T12:05:43;21.40;73.50
15409;DHT22;7803;48.130;13.788;2023-05-18T12:08:50;21.50;74.50
15409;DHT22;7803;48.130;13.788;2023-05-18T12:11:54;21.60;75.30
15409;DHT22;7803;48.130;13.788;2023-05-18T12:14:58;21.80;75.80
15409;DHT22;7803;48.130;13.788;2023-05-18T12:18:00;21.90;76.20
15409;DHT22;7803;48.130;13.788;2023-05-18T12:21:03;22.00;76.40
15409;DHT22;7803;48.130;13.788;2023-05-18T12:24:08;22.10;76.60
15409;DHT22;7803;48.130;13.788;2023-05-18T12:27:11;22.20;76.90
15409;DHT22;7803;48.130;13.788;2023-05-18T12:30:16;22.20;77.90
15409;DHT22;7803;48.130;13.788;2023-05-18T12:33:20;22.30;77.20
15409;DHT22;7803;48.130;13.788;2023-05-18T12:36:22;22.40;77.40
15409;DHT22;7803;48.130;13.788;2023-05-18T12:39:25;22.50;77.70
15409;DHT22;7803;48.130;13.788;2023-05-18T12:42:27;22.50;77.80
15409;DHT22;7803;48.130;13.788;2023-05-18T12:45:32;22.50;78.00
15409;DHT22;7803;48.130;13.788;2023-05-18T12:48:43;22.60;78.30
15409;DHT22;7803;48.130;13.788;2023-05-18T12:51:46;22.60;78.40
15409;DHT22;7803;48.130;13.788;2023-05-18T12:54:51;22.60;78.50
15409;DHT22;7803;48.130;13.788;2023-05-18T12:57:59;22.60;78.50
15409;DHT22;7803;48.130;13.788;2023-05-18T13:01:06;22.60;78.70
15409;DHT22;7803;48.130;13.788;2023-05-18T13:04:10;22.70;79.10
15409;DHT22;7803;48.130;13.788;2023-05-18T13:07:12;22.70;79.40
15409;DHT22;7803;48.130;13.788;2023-05-18T13:10:17;22.70;80.00
15409;DHT22;7803;48.130;13.788;2023-05-18T13:13:19;22.80;80.60
15409;DHT22;7803;48.130;13.788;2023-05-18T13:16:21;22.80;81.10
15409;DHT22;7803;48.130;13.788;2023-05-18T13:19:25;22.80;81.30
15409;DHT22;7803;48.130;13.788;2023-05-18T13:22:27;22.80;81.60
15409;DHT22;7803;48.130;13.788;2023-05-18T13:25:30;22.80;81.60
15409;DHT22;7803;48.130;13.788;2023-05-18T13:28:32;22.80;81.80
15409;DHT22;7803;48.130;13.788;2023-05-18T13:31:35;22.90;82.00
15409;DHT22;7803;48.130;13.788;2023-05-18T13:34:37;22.90;82.00
15409;DHT22;7803;48.130;13.788;2023-05-18T13:37:39;22.90;82.10
15409;DHT22;7803;48.130;13.788;2023-05-18T13:40:43;22.90;82.20
15409;DHT22;7803;48.130;13.788;2023-05-18T13:43:46;22.90;82.20
15409;DHT22;7803;48.130;13.788;2023-05-18T13:46:48;22.90;82.20
15409;DHT22;7803;48.130;13.788;2023-05-18T13:49:49;22.90;82.30
15409;DHT22;7803;48.130;13.788;2023-05-18T13:52:51;22.80;82.30
15409;DHT22;7803;48.130;13.788;2023-05-18T13:55:55;22.80;82.30
15409;DHT22;7803;48.130;13.788;2023-05-18T13:58:57;22.80;82.30
15409;DHT22;7803;48.130;13.788;2023-05-18T14:01:59;22.80;82.40
15409;DHT22;7803;48.130;13.788;2023-05-18T14:05:01;22.80;82.50
15409;DHT22;7803;48.130;13.788;2023-05-18T14:08:03;22.80;82.60
15409;DHT22;7803;48.130;13.788;2023-05-18T14:11:07;22.80;83.00
15409;DHT22;7803;48.130;13.788;2023-05-18T14:14:09;22.90;83.30
15409;DHT22;7803;48.130;13.788;2023-05-18T14:17:11;22.80;83.10
15409;DHT22;7803;48.130;13.788;2023-05-18T14:20:13;22.80;83.20
15409;DHT22;7803;48.130;13.788;2023-05-18T14:23:15;22.80;83.40
15409;DHT22;7803;48.130;13.788;2023-05-18T14:26:18;22.80;83.70
15409;DHT22;7803;48.130;13.788;2023-05-18T14:29:21;22.80;84.00
15409;DHT22;7803;48.130;13.788;2023-05-18T14:32:23;22.80;84.10
15409;DHT22;7803;48.130;13.788;2023-05-18T14:35:25;22.90;84.40
15409;DHT22;7803;48.130;13.788;2023-05-18T14:38:27;22.90;84.80
15409;DHT22;7803;48.130;13.788;2023-05-18T14:41:30;22.90;86.30
15409;DHT22;7803;48.130;13.788;2023-05-18T14:44:32;22.90;87.40
15409;DHT22;7803;48.130;13.788;2023-05-18T14:47:34;22.90;86.70
15409;DHT22;7803;48.130;13.788;2023-05-18T14:50:36;23.00;87.00
15409;DHT22;7803;48.130;13.788;2023-05-18T14:53:38;23.00;87.20
15409;DHT22;7803;48.130;13.788;2023-05-18T14:56:42;23.00;87.60
15409;DHT22;7803;48.130;13.788;2023-05-18T14:59:44;23.00;87.70
15409;DHT22;7803;48.130;13.788;2023-05-18T15:02:46;23.00;88.40
15409;DHT22;7803;48.130;13.788;2023-05-18T15:05:48;23.00;88.60
15409;DHT22;7803;48.130;13.788;2023-05-18T15:08:50;23.10;89.10
15409;DHT22;7803;48.130;13.788;2023-05-18T15:11:53;23.10;89.30
15409;DHT22;7803;48.130;13.788;2023-05-18T15:14:55;23.20;89.80
15409;DHT22;7803;48.130;13.788;2023-05-18T15:17:57;23.10;90.00
15409;DHT22;7803;48.130;13.788;2023-05-18T15:21:00;23.20;90.20
15409;DHT22;7803;48.130;13.788;2023-05-18T15:24:02;23.20;90.00
15409;DHT22;7803;48.130;13.788;2023-05-18T15:27:05;23.20;90.00
15409;DHT22;7803;48.130;13.788;2023-05-18T15:30:09;23.20;90.00
15409;DHT22;7803;48.130;13.788;2023-05-18T15:33:12;23.20;90.10
15409;DHT22;7803;48.130;13.788;2023-05-18T15:36:14;23.20;90.40
15409;DHT22;7803;48.130;13.788;2023-05-18T15:39:16;23.30;90.20
15409;DHT22;7803;48.130;13.788;2023-05-18T15:42:19;23.20;90.30
15409;DHT22;7803;48.130;13.788;2023-05-18T15:45:21;23.30;90.60
15409;DHT22;7803;48.130;13.788;2023-05-18T15:48:23;23.30;91.20
15409;DHT22;7803;48.130;13.788;2023-05-18T15:51:25;23.30;92.80
15409;DHT22;7803;48.130;13.788;2023-05-18T15:54:27;23.30;92.20
15409;DHT22;7803;48.130;13.788;2023-05-18T15:57:31;23.30;92.20
15409;DHT22;7803;48.130;13.788;2023-05-18T16:00:33;23.40;91.90
15409;DHT22;7803;48.130;13.788;2023-05-18T16:03:35;23.40;92.40
15409;DHT22;7803;48.130;13.788;2023-05-18T16:06:37;23.40;91.00
15409;DHT22;7803;48.130;13.788;2023-05-18T16:09:39;23.40;90.80
15409;DHT22;7803;48.130;13.788;2023-05-18T16:12:43;23.40;90.90
15409;DHT22;7803;48.130;13.788;2023-05-18T16:15:45;23.40;90.80
15409;DHT22;7803;48.130;13.788;2023-05-18T16:18:47;23.40;90.90
15409;DHT22;7803;48.130;13.788;2023-05-18T16:21:49;23.40;91.00
15409;DHT22;7803;48.130;13.788;2023-05-18T16:24:51;23.40;91.50
15409;DHT22;7803;48.130;13.788;2023-05-18T16:27:55;23.40;91.50
15409;DHT22;7803;48.130;13.788;2023-05-18T16:30:57;23.50;91.60
15409;DHT22;7803;48.130;13.788;2023-05-18T16:33:59;23.50;91.60
15409;DHT22;7803;48.130;13.788;2023-05-18T16:37:01;23.50;92.30
15409;DHT22;7803;48.130;13.788;2023-05-18T16:40:04;23.40;92.50
15409;DHT22;7803;48.130;13.788;2023-05-18T16:43:07;23.50;92.40
15409;DHT22;7803;48.130;13.788;2023-05-18T16:46:09;23.50;92.20
15409;DHT22;7803;48.130;13.788;2023-05-18T16:49:11;23.50;92.10
15409;DHT22;7803;48.130;13.788;2023-05-18T16:52:13;23.40;92.40
15409;DHT22;7803;48.130;13.788;2023-05-18T16:55:18;23.50;92.00
15409;DHT22;7803;48.130;13.788;2023-05-18T16:58:22;23.50;91.90
15409;DHT22;7803;48.130;13.788;2023-05-18T17:01:23;23.40;91.80
15409;DHT22;7803;48.130;13.788;2023-05-18T17:04:26;23.50;92.00
15409;DHT22;7803;48.130;13.788;2023-05-18T17:07:28;23.50;91.80
15409;DHT22;7803;48.130;13.788;2023-05-18T17:10:30;23.50;91.60
15409;DHT22;7803;48.130;13.788;2023-05-18T17:13:36;23.50;91.40
15409;DHT22;7803;48.130;13.788;2023-05-18T17:16:38;23.50;91.20
15409;DHT22;7803;48.130;13.788;2023-05-18T17:19:40;23.50;91.20
15409;DHT22;7803;48.130;13.788;2023-05-18T17:22:42;23.60;91.00
15409;DHT22;7803;48.130;13.788;2023-05-18T17:25:44;23.50;90.90
15409;DHT22;7803;48.130;13.788;2023-05-18T17:28:48;23.60;90.80
15409;DHT22;7803;48.130;13.788;2023-05-18T17:31:49;23.50;90.70
15409;DHT22;7803;48.130;13.788;2023-05-18T17:34:52;23.50;90.70
15409;DHT22;7803;48.130;13.788;2023-05-18T17:37:54;23.50;90.70
15409;DHT22;7803;48.130;13.788;2023-05-18T17:40:55;23.50;90.70
15409;DHT22;7803;48.130;13.788;2023-05-18T17:43:59;23.50;91.10
15409;DHT22;7803;48.130;13.788;2023-05-18T17:47:01;23.50;90.70
15409;DHT22;7803;48.130;13.788;2023-05-18T17:50:03;23.50;90.80
15409;DHT22;7803;48.130;13.788;2023-05-18T17:53:06;23.50;90.80
15409;DHT22;7803;48.130;13.788;2023-05-18T17:56:08;23.50;90.80
15409;DHT22;7803;48.130;13.788;2023-05-18T17:59:12;23.50;91.00
15409;DHT22;7803;48.130;13.788;2023-05-18T18:02:14;23.40;91.00
15409;DHT22;7803;48.130;13.788;2023-05-18T18:05:16;23.40;91.10
15409;DHT22;7803;48.130;13.788;2023-05-18T18:08:18;23.40;90.90
15409;DHT22;7803;48.130;13.788;2023-05-18T18:11:20;23.40;90.80
15409;DHT22;7803;48.130;13.788;2023-05-18T18:14:24;23.40;90.70
15409;DHT22;7803;48.130;13.788;2023-05-18T18:17:26;23.50;90.80
15409;DHT22;7803;48.130;13.788;2023-05-18T18:20:28;23.50;90.80
15409;DHT22;7803;48.130;13.788;2023-05-18T18:23:37;23.40;91.00
15409;DHT22;7803;48.130;13.788;2023-05-18T18:26:39;23.40;90.90
15409;DHT22;7803;48.130;13.788;2023-05-18T18:29:43;23.50;91.00
15409;DHT22;7803;48.130;13.788;2023-05-18T18:32:45;23.50;90.30
15409;DHT22;7803;48.130;13.788;2023-05-18T18:35:47;23.40;89.80
15409;DHT22;7803;48.130;13.788;2023-05-18T18:38:49;23.40;88.70
15409;DHT22;7803;48.130;13.788;2023-05-18T18:41:51;23.50;88.40
15409;DHT22;7803;48.130;13.788;2023-05-18T18:44:54;23.50;88.80
15409;DHT22;7803;48.130;13.788;2023-05-18T18:47:57;23.50;89.10
15409;DHT22;7803;48.130;13.788;2023-05-18T18:50:59;23.50;88.90
15409;DHT22;7803;48.130;13.788;2023-05-18T18:54:01;23.50;89.80
15409;DHT22;7803;48.130;13.788;2023-05-18T18:57:03;23.50;88.90
15409;DHT22;7803;48.130;13.788;2023-05-18T19:00:08;23.50;88.90
15409;DHT22;7803;48.130;13.788;2023-05-18T19:03:11;23.50;89.10
15409;DHT22;7803;48.130;13.788;2023-05-18T19:06:14;23.50;88.90
15409;DHT22;7803;48.130;13.788;2023-05-18T19:09:16;23.50;88.80
15409;DHT22;7803;48.130;13.788;2023-05-18T19:12:18;23.50;88.90
15409;DHT22;7803;48.130;13.788;2023-05-18T19:15:22;23.50;88.70